Time;durP1;ratioP1;P1;durP2;ratioP2;P2;SDS_P1;SDS_P2;PMS_P1;PMS_P2;Temp;Humidity;BMP_temperature;BMP_pressure;BME280_temperature;BME280_humidity;BME280_pressure;Samples;Min_cycle;Max_cycle;Signal;HPM_P1;HPM_P2
2022/07/13 00:02:11;;;;;;;0.40;0.30;;;20.00;1.00;;;;;;5118099;28;20502;-74
2022/07/13 00:04:38;;;;;;;0.53;0.40;;;20.00;1.00;;;;;;5118066;28;20456;-72
2022/07/13 00:07:06;;;;;;;0.47;0.30;;;20.00;1.00;;;;;;5117975;28;20650;-72
2022/07/13 00:09:33;;;;;;;0.60;0.30;;;19.90;1.00;;;;;;5118156;28;20867;-72
2022/07/13 00:12:00;;;;;;;0.40;0.30;;;19.90;1.00;;;;;;5118058;28;20445;-72
2022/07/13 00:14:27;;;;;;;0.53;0.30;;;19.90;1.00;;;;;;5117697;28;20457;-73
2022/07/13 00:16:54;;;;;;;0.80;0.30;;;19.90;1.00;;;;;;5118012;28;20445;-72
2022/07/13 00:19:21;;;;;;;0.93;0.40;;;19.90;1.00;;;;;;5117424;28;20566;-73
2022/07/13 00:21:48;;;;;;;1.00;0.40;;;19.80;1.00;;;;;;5117730;28;20448;-72
2022/07/13 00:24:16;;;;;;;0.60;0.30;;;19.80;1.00;;;;;;5117058;28;20448;-73
2022/07/13 00:26:44;;;;;;;0.50;0.40;;;19.80;1.00;;;;;;5117739;28;20445;-72
2022/07/13 00:29:11;;;;;;;0.93;0.30;;;19.70;1.00;;;;;;5117442;28;20445;-72
2022/07/13 00:31:38;;;;;;;1.07;0.37;;;19.70;1.00;;;;;;5117315;28;20445;-72
2022/07/13 00:34:05;;;;;;;1.20;0.30;;;19.70;1.00;;;;;;5117316;28;20534;-73
2022/07/13 00:36:32;;;;;;;0.70;0.30;;;19.80;1.00;;;;;;5117377;28;20502;-73
2022/07/13 00:38:59;;;;;;;0.50;0.30;;;19.80;1.00;;;;;;5117386;28;20503;-72
2022/07/13 00:41:27;;;;;;;0.60;0.37;;;19.70;1.00;;;;;;5117201;28;20533;-73
2022/07/13 00:43:54;;;;;;;0.70;0.50;;;19.70;1.00;;;;;;5117438;28;20449;-72
2022/07/13 00:46:21;;;;;;;2.30;0.50;;;19.70;1.00;;;;;;5117214;28;20570;-72
2022/07/13 00:48:48;;;;;;;1.60;0.40;;;19.60;1.00;;;;;;5116651;28;20506;-71
2022/07/13 00:51:15;;;;;;;0.70;0.40;;;19.60;1.00;;;;;;5117295;28;20807;-71
2022/07/13 00:53:42;;;;;;;1.07;0.30;;;19.60;1.00;;;;;;5116429;28;20526;-72
2022/07/13 00:56:10;;;;;;;0.97;0.30;;;19.60;1.00;;;;;;5117124;28;20883;-72
2022/07/13 00:58:39;;;;;;;0.63;0.30;;;19.50;1.00;;;;;;5116684;28;20508;-72
2022/07/13 01:01:06;;;;;;;0.70;0.40;;;19.50;1.00;;;;;;5117202;28;20493;-71
2022/07/13 01:03:33;;;;;;;0.50;0.20;;;19.50;1.00;;;;;;5116871;28;20452;-72
2022/07/13 01:06:01;;;;;;;0.53;0.30;;;19.40;1.00;;;;;;5116885;28;20453;-73
2022/07/13 01:08:28;;;;;;;0.50;0.30;;;19.40;1.00;;;;;;5117032;28;20544;-72
2022/07/13 01:10:55;;;;;;;0.67;0.30;;;19.30;1.00;;;;;;5116958;28;20457;-73
2022/07/13 01:13:24;;;;;;;0.50;0.30;;;19.30;8.60;;;;;;5115886;28;20860;-73
2022/07/13 01:15:53;;;;;;;0.50;0.30;;;19.40;17.60;;;;;;5116300;28;20756;-73
2022/07/13 01:18:20;;;;;;;0.50;0.40;;;19.30;3.30;;;;;;5116190;28;20442;-73
2022/07/13 01:20:47;;;;;;;0.50;0.40;;;19.20;12.10;;;;;;5116873;28;20492;-74
2022/07/13 01:23:17;;;;;;;0.50;0.30;;;19.20;30.00;;;;;;5116735;28;20459;-73
2022/07/13 01:25:45;;;;;;;0.50;0.40;;;19.20;48.30;;;;;;5097012;28;21173;-73
2022/07/13 01:28:13;;;;;;;0.70;0.33;;;19.30;55.50;;;;;;5096217;28;20918;-73
2022/07/13 01:30:40;;;;;;;2.50;0.40;;;19.30;59.10;;;;;;5096387;28;20948;-73
2022/07/13 01:33:07;;;;;;;0.57;0.30;;;19.30;26.20;;;;;;5096315;28;20484;-73
2022/07/13 01:35:34;;;;;;;0.60;0.30;;;19.20;31.80;;;;;;5097156;28;20449;-73
2022/07/13 01:38:02;;;;;;;0.60;0.30;;;19.20;47.10;;;;;;5100348;28;20503;-72
2022/07/13 01:40:30;;;;;;;0.50;0.30;;;19.20;91.00;;;;;;5100527;28;20489;-73
2022/07/13 01:42:57;;;;;;;0.70;0.40;;;19.10;98.80;;;;;;5100466;28;20449;-72
2022/07/13 01:45:24;;;;;;;0.80;0.30;;;19.10;99.90;;;;;;5100392;28;20453;-72
2022/07/13 01:47:53;;;;;;;0.60;0.40;;;19.20;99.90;;;;;;5100539;28;20881;-72
2022/07/13 01:50:21;;;;;;;0.70;0.30;;;19.20;97.90;;;;;;5100540;28;20458;-72
2022/07/13 01:52:49;;;;;;;0.50;0.40;;;19.20;99.90;;;;;;5100402;28;20507;-72
2022/07/13 01:55:16;;;;;;;0.67;0.40;;;19.20;99.90;;;;;;5100068;28;20983;-72
2022/07/13 01:57:45;;;;;;;1.00;0.30;;;19.10;99.90;;;;;;5100128;28;21108;-72
2022/07/13 02:00:14;;;;;;;0.60;0.40;;;19.10;99.90;;;;;;5100161;28;20485;-73
2022/07/13 02:02:42;;;;;;;0.50;0.30;;;19.10;99.90;;;;;;5100270;28;20457;-72
2022/07/13 02:05:10;;;;;;;0.50;0.30;;;19.00;99.90;;;;;;5099650;28;20457;-73
2022/07/13 02:07:38;;;;;;;0.80;0.40;;;19.10;99.90;;;;;;5100572;28;20449;-72
2022/07/13 02:10:06;;;;;;;1.00;0.30;;;19.10;99.90;;;;;;5100180;28;20453;-72
2022/07/13 02:12:33;;;;;;;0.70;0.30;;;19.20;99.90;;;;;;5100210;28;20503;-72
2022/07/13 02:15:01;;;;;;;0.50;0.37;;;19.20;99.90;;;;;;5100193;28;20453;-73
2022/07/13 02:17:28;;;;;;;0.90;0.40;;;19.20;99.90;;;;;;5099831;28;20502;-72
2022/07/13 02:19:56;;;;;;;0.60;0.40;;;19.20;99.90;;;;;;5099776;28;20524;-72
2022/07/13 02:22:23;;;;;;;0.80;0.40;;;19.30;99.90;;;;;;5099546;28;20518;-72
2022/07/13 02:24:50;;;;;;;0.60;0.30;;;19.30;99.90;;;;;;5099841;28;20507;-72
2022/07/13 02:27:20;;;;;;;0.57;0.33;;;19.30;95.20;;;;;;5099429;28;20941;-72
2022/07/13 02:29:47;;;;;;;0.40;0.30;;;19.30;94.70;;;;;;5099445;28;20965;-72
2022/07/13 02:32:15;;;;;;;0.60;0.30;;;19.30;99.90;;;;;;5099320;28;20453;-71
2022/07/13 02:34:42;;;;;;;0.50;0.30;;;19.40;92.20;;;;;;5099248;28;20465;-72
2022/07/13 02:37:11;;;;;;;0.60;0.30;;;19.40;99.90;;;;;;5099373;28;20491;-73
2022/07/13 02:39:39;;;;;;;0.97;0.40;;;19.40;90.60;;;;;;5098914;28;20453;-72
2022/07/13 02:42:06;;;;;;;0.53;0.40;;;19.40;99.90;;;;;;5099272;28;20544;-72
2022/07/13 02:44:33;;;;;;;0.70;0.40;;;19.40;96.10;;;;;;5099396;28;20513;-73
2022/07/13 02:47:00;;;;;;;0.50;0.30;;;19.40;97.70;;;;;;5099020;28;20872;-72
2022/07/13 02:49:28;;;;;;;0.60;0.40;;;19.30;99.90;;;;;;5099175;28;20461;-73
2022/07/13 02:51:55;;;;;;;0.60;0.40;;;19.20;99.90;;;;;;5098819;28;20458;-72
2022/07/13 02:54:22;;;;;;;1.07;0.40;;;19.30;99.90;;;;;;5111223;28;20469;-72
2022/07/13 02:56:49;;;;;;;0.87;0.40;;;19.20;99.90;;;;;;5119559;28;20501;-72
2022/07/13 02:59:16;;;;;;;0.40;0.30;;;19.20;99.90;;;;;;5119599;28;20501;-71
2022/07/13 03:01:43;;;;;;;0.50;0.30;;;19.20;99.90;;;;;;5119817;27;20535;-72
2022/07/13 03:04:10;;;;;;;2.07;0.30;;;19.10;99.90;;;;;;5119080;28;20517;-71
2022/07/13 03:06:38;;;;;;;0.50;0.40;;;19.10;99.90;;;;;;5119182;28;20472;-71
2022/07/13 03:09:05;;;;;;;0.73;0.40;;;19.00;99.90;;;;;;5118593;28;20445;-71
2022/07/13 03:11:32;;;;;;;0.73;0.30;;;19.00;99.90;;;;;;5118907;28;20497;-71
2022/07/13 03:14:01;;;;;;;0.60;0.27;;;19.00;99.90;;;;;;5118987;28;20549;-71
2022/07/13 03:16:28;;;;;;;0.53;0.30;;;18.90;99.90;;;;;;5119669;28;20468;-71
2022/07/13 03:18:55;;;;;;;0.50;0.30;;;18.90;1.00;;;;;;5118949;28;20452;-71
2022/07/13 03:21:22;;;;;;;0.63;0.30;;;18.90;1.00;;;;;;5118782;28;20489;-71
2022/07/13 03:23:51;;;;;;;0.60;0.30;;;18.80;1.00;;;;;;5119136;28;20501;-72
2022/07/13 03:26:17;;;;;;;0.50;0.30;;;18.70;1.00;;;;;;5119315;28;20475;-71
2022/07/13 03:28:45;;;;;;;1.07;0.30;;;18.70;1.00;;;;;;5118675;28;20509;-72
2022/07/13 03:31:12;;;;;;;0.50;0.30;;;18.60;1.00;;;;;;5118713;28;20449;-73
2022/07/13 03:33:39;;;;;;;0.40;0.30;;;18.80;1.00;;;;;;5118819;28;20876;-71
2022/07/13 03:36:07;;;;;;;0.40;0.30;;;19.00;99.90;;;;;;5118966;28;20888;-71
2022/07/13 03:38:34;;;;;;;0.50;0.40;;;19.20;99.90;;;;;;5118451;28;20447;-71
2022/07/13 03:41:03;;;;;;;1.23;0.30;;;19.40;99.90;;;;;;5118222;28;20529;-71
2022/07/13 03:43:30;;;;;;;0.60;0.37;;;19.50;99.90;;;;;;5117742;28;20444;-71
2022/07/13 03:45:58;;;;;;;0.43;0.30;;;19.50;99.90;;;;;;5118017;28;20510;-71
2022/07/13 03:48:25;;;;;;;0.53;0.40;;;19.30;99.90;;;;;;5118285;28;20484;-71
2022/07/13 03:50:52;;;;;;;0.50;0.30;;;19.10;99.90;;;;;;5118528;28;20502;-72
2022/07/13 03:53:19;;;;;;;1.20;0.20;;;18.90;99.90;;;;;;5117559;28;20490;-73
2022/07/13 03:55:45;;;;;;;0.50;0.30;;;18.80;99.90;;;;;;5118191;28;20483;-72
2022/07/13 03:58:14;;;;;;;0.50;0.33;;;18.70;1.00;;;;;;5116880;28;20480;-71
2022/07/13 04:00:41;;;;;;;0.40;0.30;;;18.80;1.00;;;;;;5116567;28;20484;-70
2022/07/13 04:03:08;;;;;;;0.57;0.33;;;18.70;1.00;;;;;;5117166;28;20445;-72
2022/07/13 04:05:35;;;;;;;0.40;0.27;;;18.80;1.00;;;;;;5116719;28;20513;-73
2022/07/13 04:08:02;;;;;;;0.90;0.40;;;18.90;99.90;;;;;;5116897;28;20479;-72
2022/07/13 04:10:29;;;;;;;0.80;0.40;;;18.80;1.00;;;;;;5117183;28;20451;-72
2022/07/13 04:12:58;;;;;;;0.60;0.37;;;18.80;1.00;;;;;;5117468;28;20514;-73
2022/07/13 04:15:26;;;;;;;0.70;0.47;;;18.90;1.00;;;;;;5117421;28;20457;-72
2022/07/13 04:17:53;;;;;;;0.60;0.40;;;19.00;1.00;;;;;;5116947;28;20448;-73
2022/07/13 04:20:20;;;;;;;0.87;0.30;;;18.90;99.90;;;;;;5116569;28;20488;-72
2022/07/13 04:22:47;;;;;;;0.50;0.30;;;18.90;1.00;;;;;;5115514;28;20994;-73
2022/07/13 04:25:14;;;;;;;0.60;0.40;;;18.90;1.00;;;;;;5116461;28;20461;-73
2022/07/13 04:27:41;;;;;;;0.60;0.40;;;18.80;1.00;;;;;;5117503;28;20445;-73
2022/07/13 04:30:10;;;;;;;0.77;0.40;;;18.80;1.00;;;;;;5117003;28;20510;-72
2022/07/13 04:32:38;;;;;;;4.10;0.30;;;18.90;1.00;;;;;;5117321;28;20456;-73
2022/07/13 04:35:06;;;;;;;0.40;0.30;;;18.90;1.00;;;;;;5117288;28;20964;-72
2022/07/13 04:37:35;;;;;;;0.60;0.30;;;18.80;1.00;;;;;;5116805;28;20514;-72
2022/07/13 04:40:02;;;;;;;0.70;0.30;;;18.80;1.00;;;;;;5113428;28;20452;-72
2022/07/13 04:42:28;;;;;;;0.60;0.40;;;18.90;1.00;;;;;;5115372;28;20866;-72
2022/07/13 04:44:55;;;;;;;0.43;0.30;;;18.90;1.00;;;;;;5115590;28;20449;-72
2022/07/13 04:47:22;;;;;;;0.70;0.40;;;18.90;1.00;;;;;;5116690;28;20476;-73
2022/07/13 04:49:51;;;;;;;0.90;0.40;;;19.00;1.00;;;;;;5134070;27;20511;-72
2022/07/13 04:52:18;;;;;;;0.70;0.37;;;19.00;1.00;;;;;;5135599;27;20485;-79
2022/07/13 04:54:45;;;;;;;1.00;0.47;;;19.00;1.00;;;;;;5136085;27;20608;-79
2022/07/13 04:57:13;;;;;;;0.50;0.30;;;19.00;1.00;;;;;;5136582;27;20824;-79
2022/07/13 04:59:40;;;;;;;1.03;0.30;;;19.00;1.00;;;;;;5137018;27;20894;-77
2022/07/13 05:02:07;;;;;;;0.40;0.20;;;19.10;1.00;;;;;;5136620;27;20544;-76
2022/07/13 05:04:34;;;;;;;0.60;0.40;;;19.20;99.90;;;;;;5137058;27;20504;-75
2022/07/13 05:07:03;;;;;;;0.50;0.30;;;19.20;99.90;;;;;;5136292;27;20444;-75
2022/07/13 05:09:33;;;;;;;0.60;0.40;;;19.20;1.00;;;;;;5135911;27;20448;-76
2022/07/13 05:12:00;;;;;;;0.60;0.33;;;19.30;1.00;;;;;;5134975;27;20825;-77
2022/07/13 05:14:27;;;;;;;0.50;0.30;;;19.40;99.90;;;;;;5135140;27;20559;-75
2022/07/13 05:16:54;;;;;;;1.10;0.30;;;19.60;99.90;;;;;;5136110;27;20451;-76
2022/07/13 05:19:21;;;;;;;0.63;0.33;;;19.70;99.90;;;;;;5136073;27;20455;-75
2022/07/13 05:21:48;;;;;;;0.87;0.30;;;19.70;99.90;;;;;;5136255;27;20937;-73
2022/07/13 05:24:17;;;;;;;0.70;0.40;;;19.70;99.90;;;;;;5136636;27;20452;-74
2022/07/13 05:26:44;;;;;;;0.50;0.30;;;19.80;99.90;;;;;;5134918;28;20500;-75
2022/07/13 05:29:11;;;;;;;0.80;0.40;;;19.90;99.90;;;;;;5135166;28;20455;-75
2022/07/13 05:31:38;;;;;;;1.10;0.50;;;19.90;99.90;;;;;;5134647;28;20448;-75
2022/07/13 05:34:05;;;;;;;0.60;0.40;;;19.90;99.90;;;;;;5134531;28;20452;-76
2022/07/13 05:36:33;;;;;;;0.50;0.40;;;19.90;99.90;;;;;;5135434;28;21069;-75
2022/07/13 05:39:01;;;;;;;0.60;0.30;;;20.00;99.90;;;;;;5134330;28;20447;-75
2022/07/13 05:41:30;;;;;;;0.60;0.40;;;20.00;99.90;;;;;;5134488;28;20494;-75
2022/07/13 05:43:57;;;;;;;0.70;0.30;;;20.00;99.50;;;;;;5134337;28;20444;-76
2022/07/13 05:46:24;;;;;;;0.93;0.40;;;20.10;99.90;;;;;;5134954;28;20440;-76
2022/07/13 05:48:51;;;;;;;1.23;0.30;;;20.30;99.90;;;;;;5135127;28;20452;-74
2022/07/13 05:51:18;;;;;;;0.60;0.40;;;20.30;89.90;;;;;;5136175;28;20521;-73
2022/07/13 05:53:46;;;;;;;0.50;0.30;;;20.40;47.10;;;;;;5134972;28;20471;-74
2022/07/13 05:56:13;;;;;;;0.50;0.30;;;20.50;22.90;;;;;;5134716;28;20478;-73
2022/07/13 05:58:42;;;;;;;0.50;0.30;;;20.40;24.50;;;;;;5134795;28;20471;-75
2022/07/13 06:01:09;;;;;;;1.07;0.43;;;20.50;28.50;;;;;;5134767;28;20467;-74
2022/07/13 06:03:41;;;;;;;0.73;0.40;;;20.50;29.90;;;;;;5135576;28;20476;-75
2022/07/13 06:06:08;;;;;;;2.00;0.40;;;20.60;4.70;;;;;;5135241;28;20479;-76
2022/07/13 06:08:37;;;;;;;0.80;0.50;;;20.60;1.00;;;;;;5135638;28;20445;-75
2022/07/13 06:11:05;;;;;;;0.70;0.40;;;20.70;1.00;;;;;;5134511;28;20460;-75
2022/07/13 06:13:32;;;;;;;0.60;0.40;;;20.80;1.00;;;;;;5133409;28;20448;-75
2022/07/13 06:16:02;;;;;;;0.70;0.40;;;21.00;1.00;;;;;;5134414;28;20456;-75
2022/07/13 06:18:29;;;;;;;0.43;0.30;;;21.10;1.00;;;;;;5134673;28;20452;-75
2022/07/13 06:20:56;;;;;;;0.50;0.30;;;21.30;1.00;;;;;;5135543;27;20508;-75
2022/07/13 06:23:23;;;;;;;1.23;0.50;;;21.40;1.00;;;;;;5138948;27;20440;-74
2022/07/13 06:25:50;;;;;;;0.50;0.40;;;21.50;1.00;;;;;;5137440;27;20455;-73
2022/07/13 06:28:18;;;;;;;0.40;0.30;;;21.60;1.00;;;;;;5138259;27;20519;-75
2022/07/13 06:30:45;;;;;;;0.83;0.30;;;21.60;1.00;;;;;;5137952;27;20479;-74
2022/07/13 06:33:14;;;;;;;0.50;0.40;;;21.70;1.00;;;;;;5138089;27;20458;-74
2022/07/13 06:35:40;;;;;;;0.60;0.40;;;21.80;1.00;;;;;;5137939;27;20491;-75
2022/07/13 06:38:08;;;;;;;0.77;0.40;;;21.90;1.00;;;;;;5137960;27;20551;-75
2022/07/13 06:40:35;;;;;;;0.83;0.30;;;22.00;1.00;;;;;;5138222;27;20492;-75
2022/07/13 06:43:02;;;;;;;0.60;0.30;;;22.00;1.00;;;;;;5139518;27;20544;-74
2022/07/13 06:45:30;;;;;;;3.33;0.40;;;22.00;1.00;;;;;;5139038;27;20462;-75
2022/07/13 06:47:57;;;;;;;0.50;0.30;;;22.10;1.00;;;;;;5137998;27;20447;-74
2022/07/13 06:50:26;;;;;;;0.57;0.40;;;22.10;1.00;;;;;;5137899;27;20881;-75
2022/07/13 06:52:53;;;;;;;0.70;0.40;;;22.10;1.00;;;;;;5120605;27;20444;-75
2022/07/13 06:55:20;;;;;;;0.60;0.40;;;22.10;1.00;;;;;;5118196;28;20483;-75
2022/07/13 06:57:47;;;;;;;0.97;0.30;;;22.20;1.00;;;;;;5116547;28;20449;-74
2022/07/13 07:00:15;;;;;;;1.37;0.30;;;22.30;1.00;;;;;;5115783;28;20452;-76
2022/07/13 07:02:42;;;;;;;0.50;0.30;;;22.30;1.00;;;;;;5114763;28;20802;-75
2022/07/13 07:05:10;;;;;;;0.53;0.30;;;22.20;1.00;;;;;;5115601;28;20459;-75
2022/07/13 07:07:40;;;;;;;0.70;0.40;;;22.20;1.00;;;;;;5116500;28;20452;-74
2022/07/13 07:10:09;;;;;;;0.77;0.30;;;22.20;1.00;;;;;;5117638;28;20812;-74
2022/07/13 07:12:36;;;;;;;0.50;0.40;;;22.30;1.00;;;;;;5116573;28;20449;-74
2022/07/13 07:15:03;;;;;;;0.73;0.40;;;22.40;1.00;;;;;;5117701;28;20453;-73
2022/07/13 07:17:31;;;;;;;1.53;0.40;;;22.50;1.00;;;;;;5116522;28;20449;-73
2022/07/13 07:20:03;;;;;;;0.57;0.30;;;22.70;1.00;;;;;;5114510;28;20456;-73
2022/07/13 07:22:31;;;;;;;0.60;0.30;;;23.00;1.00;;;;;;5115687;28;20862;-76
2022/07/13 07:24:59;;;;;;;0.70;0.40;;;23.20;1.00;;;;;;5117141;28;20445;-77
2022/07/13 07:27:28;;;;;;;0.70;0.30;;;23.30;1.00;;;;;;5117330;28;20448;-76
2022/07/13 07:29:55;;;;;;;3.30;0.37;;;23.40;1.00;;;;;;5117711;28;20460;-76
2022/07/13 07:32:22;;;;;;;0.50;0.30;;;23.40;1.00;;;;;;5116731;28;20452;-76
2022/07/13 07:34:49;;;;;;;0.60;0.40;;;23.50;1.00;;;;;;5114616;28;20502;-75
2022/07/13 07:37:16;;;;;;;1.83;0.30;;;23.70;1.00;;;;;;5116233;28;20809;-73
2022/07/13 07:39:43;;;;;;;0.50;0.30;;;23.90;1.00;;;;;;5116503;28;20892;-74
2022/07/13 07:42:12;;;;;;;0.43;0.30;;;24.00;1.00;;;;;;5117774;28;20765;-74
2022/07/13 07:44:39;;;;;;;1.97;0.40;;;24.30;1.00;;;;;;5116444;28;20464;-74
2022/07/13 07:47:06;;;;;;;2.00;0.70;;;24.50;1.00;;;;;;5115136;28;20437;-74
2022/07/13 07:49:33;;;;;;;0.50;0.40;;;24.70;1.00;;;;;;5115865;28;20945;-74
2022/07/13 07:52:00;;;;;;;0.60;0.40;;;25.00;1.00;;;;;;5114552;28;20447;-72
2022/07/13 07:54:28;;;;;;;0.30;0.20;;;25.10;1.00;;;;;;5126971;27;20488;-76
2022/07/13 07:56:55;;;;;;;1.03;0.30;;;25.30;1.00;;;;;;5136556;27;20871;-76
2022/07/13 07:59:24;;;;;;;0.50;0.30;;;25.30;1.00;;;;;;5135271;27;20448;-75
2022/07/13 08:01:51;;;;;;;0.40;0.20;;;25.50;1.00;;;;;;5136387;27;20488;-75
2022/07/13 08:04:18;;;;;;;0.40;0.30;;;25.80;1.00;;;;;;5135504;27;20867;-76
2022/07/13 08:06:45;;;;;;;0.40;0.30;;;25.90;1.00;;;;;;5133564;27;20501;-76
2022/07/13 08:09:12;;;;;;;0.50;0.30;;;26.10;1.00;;;;;;5133372;27;20451;-75
2022/07/13 08:11:39;;;;;;;0.30;0.20;;;26.30;1.00;;;;;;5132503;27;20730;-75
2022/07/13 08:14:06;;;;;;;0.50;0.30;;;26.50;1.00;;;;;;5133479;27;20447;-74
2022/07/13 08:16:35;;;;;;;5.63;0.30;;;26.40;1.00;;;;;;5132321;27;20456;-75
2022/07/13 08:19:02;;;;;;;0.40;0.30;;;26.50;1.00;;;;;;5154927;27;20443;-75
2022/07/13 08:21:29;;;;;;;0.50;0.33;;;26.50;1.00;;;;;;5155230;27;20901;-75
2022/07/13 08:23:56;;;;;;;0.40;0.20;;;26.80;1.00;;;;;;5155435;27;20889;-75
2022/07/13 08:26:24;;;;;;;0.40;0.30;;;26.80;1.00;;;;;;5155157;27;20494;-76
2022/07/13 08:28:53;;;;;;;0.50;0.30;;;26.70;1.00;;;;;;5154647;27;20495;-74
2022/07/13 08:31:22;;;;;;;0.40;0.20;;;26.90;1.00;;;;;;5154000;27;20458;-75
2022/07/13 08:39:23;;;;;;;0.80;0.40;;;27.00;1.00;;;;;;5155324;27;20459;-74
2022/07/13 08:41:51;;;;;;;0.80;0.30;;;27.10;1.00;;;;;;5155590;27;20451;-74
2022/07/13 08:44:19;;;;;;;0.50;0.30;;;26.90;1.00;;;;;;5156430;27;20451;-75
2022/07/13 08:46:46;;;;;;;0.40;0.20;;;26.80;1.00;;;;;;5158088;27;20447;-75
2022/07/13 08:49:15;;;;;;;0.60;0.30;;;27.00;1.00;;;;;;5156593;27;20713;-73
2022/07/13 08:51:45;;;;;;;0.40;0.30;;;27.20;1.00;;;;;;5155044;27;20450;-74
2022/07/13 08:54:13;;;;;;;0.60;0.40;;;27.40;1.00;;;;;;5156958;27;20482;-73
2022/07/13 08:56:41;;;;;;;0.50;0.33;;;27.40;1.00;;;;;;5156855;27;20488;-75
2022/07/13 08:59:08;;;;;;;0.40;0.30;;;27.20;1.00;;;;;;5154665;27;20451;-75
2022/07/13 09:01:35;;;;;;;0.40;0.20;;;27.10;1.00;;;;;;5144923;27;20478;-75
2022/07/13 09:04:02;;;;;;;0.30;0.20;;;27.20;1.00;;;;;;5152696;27;20960;-74
2022/07/13 09:06:48;;;;;;;0.47;0.30;;;27.20;1.00;;;;;;5153985;27;20498;-74
2022/07/13 09:09:33;;;;;;;0.50;0.40;;;27.30;1.00;;;;;;5154498;27;20571;-74
2022/07/13 09:12:20;;;;;;;0.50;0.30;;;27.30;1.00;;;;;;5156140;27;20546;-73
2022/07/13 09:14:54;;;;;;;0.50;0.30;;;27.20;1.00;;;;;;5156578;27;20477;-74
2022/07/13 09:17:33;;;;;;;0.50;0.40;;;27.30;1.00;;;;;;5157501;27;20450;-73
2022/07/13 09:20:04;;;;;;;1.40;0.30;;;27.40;1.00;;;;;;5156454;27;20563;-77
2022/07/13 09:22:34;;;;;;;0.70;0.37;;;27.50;1.00;;;;;;5155014;27;20998;-77
2022/07/13 09:25:01;;;;;;;0.47;0.30;;;27.50;1.00;;;;;;5147513;27;20729;-74
2022/07/13 09:27:47;;;;;;;0.40;0.30;;;27.40;1.00;;;;;;5147901;27;20476;-76
2022/07/13 09:30:23;;;;;;;0.37;0.20;;;27.40;1.00;;;;;;5147096;27;20810;-73
2022/07/13 09:32:51;;;;;;;0.37;0.23;;;27.40;1.00;;;;;;5154908;27;20474;-76
2022/07/13 09:35:20;;;;;;;0.50;0.30;;;27.50;1.00;;;;;;5153860;27;20500;-74
2022/07/13 09:37:49;;;;;;;0.50;0.30;;;27.60;1.00;;;;;;5153607;27;20443;-75
2022/07/13 09:40:20;;;;;;;0.40;0.30;;;27.70;1.00;;;;;;5153465;27;20858;-74
2022/07/13 09:46:08;;;;;;;2.00;0.30;;;27.60;1.00;;;;;;5153264;27;20561;-73
2022/07/13 09:48:24;;;;;;;0.97;0.27;;;27.80;1.00;;;;;;5153673;27;20415;-74
2022/07/13 09:50:55;;;;;;;0.40;0.30;;;27.90;1.00;;;;;;5154112;27;20454;-74
2022/07/13 09:53:29;;;;;;;2.00;0.30;;;28.10;1.00;;;;;;5155340;27;20463;-74
2022/07/13 09:55:58;;;;;;;0.50;0.27;;;28.30;1.00;;;;;;5155498;27;20451;-76
2022/07/13 09:58:29;;;;;;;0.40;0.20;;;28.40;1.00;;;;;;5158155;27;20865;-75
2022/07/13 10:00:58;;;;;;;0.40;0.30;;;28.30;1.00;;;;;;5158161;27;20493;-73
2022/07/13 10:03:26;;;;;;;0.40;0.20;;;28.20;1.00;;;;;;5158475;27;20485;-74
2022/07/13 10:05:54;;;;;;;0.40;0.20;;;28.30;1.00;;;;;;5158666;27;20450;-73
2022/07/13 10:08:22;;;;;;;0.40;0.20;;;28.40;1.00;;;;;;5156368;27;20496;-74
2022/07/13 10:10:52;;;;;;;0.70;0.33;;;28.70;1.00;;;;;;5156915;27;20446;-75
2022/07/13 10:13:20;;;;;;;0.60;0.37;;;29.00;1.00;;;;;;5157937;27;20432;-75
2022/07/13 10:15:48;;;;;;;0.50;0.30;;;29.20;1.00;;;;;;5135013;27;20459;-75
2022/07/13 10:18:21;;;;;;;0.40;0.30;;;29.30;1.00;;;;;;5132874;27;20453;-75
2022/07/13 10:20:54;;;;;;;0.30;0.20;;;29.40;1.00;;;;;;5134979;27;20448;-76
2022/07/13 10:23:40;;;;;;;1.17;0.20;;;29.60;1.00;;;;;;5137220;27;20475;-76
2022/07/13 10:41:22;;;;;;;0.30;0.20;;;31.20;1.00;;;;;;5108563;28;20219;-76
2022/07/13 10:43:55;;;;;;;0.37;0.20;;;31.10;1.00;;;;;;5116566;28;20795;-75
2022/07/13 10:46:50;;;;;;;0.30;0.20;;;31.40;1.00;;;;;;5116175;28;20597;-75
2022/07/13 10:49:44;;;;;;;0.50;0.30;;;31.50;1.00;;;;;;5116479;28;20452;-75
2022/07/13 10:52:49;;;;;;;0.40;0.20;;;32.10;1.00;;;;;;5114376;28;20455;-75
2022/07/13 10:55:47;;;;;;;1.50;0.20;;;32.30;1.00;;;;;;5113931;28;20893;-75
2022/07/13 10:58:46;;;;;;;0.80;0.30;;;32.80;1.00;;;;;;5097849;28;20456;-74
2022/07/13 11:01:33;;;;;;;0.30;0.13;;;32.90;1.00;;;;;;5114202;28;20459;-74
2022/07/13 11:04:00;;;;;;;0.40;0.20;;;32.90;1.00;;;;;;5113849;28;20480;-74
2022/07/13 11:06:29;;;;;;;0.40;0.20;;;33.50;1.00;;;;;;5115647;28;20480;-74
2022/07/13 11:09:14;;;;;;;0.30;0.20;;;33.50;1.00;;;;;;5115353;28;20880;-75
2022/07/13 11:11:46;;;;;;;0.30;0.20;;;33.60;1.00;;;;;;5115334;28;20449;-75
2022/07/13 11:14:51;;;;;;;0.30;0.20;;;33.60;1.00;;;;;;5115103;28;20889;-75
2022/07/13 11:17:20;;;;;;;0.33;0.20;;;33.70;1.00;;;;;;5117039;28;20441;-74
2022/07/13 11:19:52;;;;;;;0.40;0.20;;;34.00;1.00;;;;;;5117007;28;20900;-74
2022/07/13 11:22:19;;;;;;;0.40;0.20;;;34.00;1.00;;;;;;5115971;28;20440;-74
2022/07/13 11:25:14;;;;;;;0.40;0.20;;;33.70;1.00;;;;;;5115493;28;20457;-75
2022/07/13 11:27:56;;;;;;;0.33;0.20;;;33.30;1.00;;;;;;5117550;28;20429;-74
2022/07/13 11:30:29;;;;;;;0.40;0.20;;;32.70;1.00;;;;;;5116037;28;21116;-74
2022/07/13 11:32:56;;;;;;;0.57;0.30;;;32.10;1.00;;;;;;5117598;28;20465;-74
2022/07/13 11:35:24;;;;;;;0.30;0.20;;;31.70;1.00;;;;;;5114496;28;20449;-74
2022/07/13 11:37:52;;;;;;;0.30;0.20;;;31.30;1.00;;;;;;5117371;28;20444;-74
2022/07/13 11:40:30;;;;;;;2.50;0.30;;;31.40;1.00;;;;;;5116570;28;20488;-74
2022/07/13 11:43:00;;;;;;;0.40;0.20;;;32.20;1.00;;;;;;5116830;28;20848;-75
2022/07/13 11:45:31;;;;;;;0.30;0.20;;;32.90;1.00;;;;;;5116252;28;20527;-74
2022/07/13 11:47:59;;;;;;;0.37;0.20;;;33.50;1.00;;;;;;5115691;28;20536;-74
2022/07/13 11:50:40;;;;;;;0.30;0.17;;;34.00;1.00;;;;;;5115231;28;20556;-74
2022/07/13 11:53:07;;;;;;;0.40;0.20;;;34.50;1.00;;;;;;5114135;28;20480;-74
2022/07/13 11:55:36;;;;;;;0.30;0.20;;;34.80;1.00;;;;;;5113589;28;20570;-76
2022/07/13 11:58:04;;;;;;;0.40;0.20;;;34.30;1.00;;;;;;5113425;28;20727;-73
2022/07/13 12:00:33;;;;;;;0.30;0.20;;;34.50;1.00;;;;;;5112812;28;20507;-75
2022/07/13 12:03:00;;;;;;;0.40;0.20;;;34.70;1.00;;;;;;5111020;28;20468;-75
2022/07/13 12:05:28;;;;;;;1.33;0.20;;;35.00;1.00;;;;;;5112835;28;21000;-73
2022/07/13 12:08:03;;;;;;;3.00;0.80;;;35.20;99.90;;;;;;5112427;28;20453;-73
2022/07/13 12:10:32;;;;;;;0.37;0.20;;;35.20;99.90;;;;;;5112592;28;20436;-74
2022/07/13 12:12:59;;;;;;;0.30;0.20;;;35.30;99.90;;;;;;5113719;28;20441;-74
2022/07/13 12:15:26;;;;;;;0.40;0.10;;;35.30;99.90;;;;;;5110817;28;20464;-72
2022/07/13 12:17:55;;;;;;;0.33;0.20;;;35.30;99.90;;;;;;5111894;28;20898;-72
2022/07/13 12:20:23;;;;;;;0.50;0.20;;;35.40;99.90;;;;;;5111028;28;20539;-72
2022/07/13 12:22:51;;;;;;;2.30;0.20;;;35.50;99.90;;;;;;5112369;28;20484;-72
2022/07/13 12:25:29;;;;;;;0.37;0.20;;;35.90;99.90;;;;;;5111781;28;20746;-72
2022/07/13 12:27:59;;;;;;;0.40;0.30;;;36.10;99.90;;;;;;5111097;28;20488;-73
2022/07/13 12:30:26;;;;;;;0.30;0.10;;;35.70;99.90;;;;;;5111785;28;20448;-72
2022/07/13 12:33:00;;;;;;;0.40;0.20;;;35.60;99.90;;;;;;5111566;28;20556;-71
2022/07/13 12:35:28;;;;;;;0.40;0.20;;;35.00;99.90;;;;;;5113154;28;20507;-71
2022/07/13 12:37:58;;;;;;;0.40;0.20;;;34.70;99.90;;;;;;5113559;28;20472;-72
2022/07/13 12:40:37;;;;;;;0.30;0.20;;;34.30;99.90;;;;;;5114099;28;20476;-72
2022/07/13 12:43:04;;;;;;;0.30;0.20;;;34.40;99.90;;;;;;5113722;28;20488;-72
2022/07/13 12:45:31;;;;;;;0.63;0.20;;;34.40;99.90;;;;;;5112498;28;21120;-73
2022/07/13 12:48:00;;;;;;;0.40;0.20;;;33.90;99.90;;;;;;5113161;28;20449;-71
2022/07/13 12:50:29;;;;;;;0.43;0.30;;;33.50;99.90;;;;;;5111883;28;20549;-73
2022/07/13 12:53:00;;;;;;;0.30;0.20;;;33.30;99.90;;;;;;5114082;28;20445;-72
2022/07/13 12:55:27;;;;;;;0.50;0.20;;;33.20;99.90;;;;;;5113464;28;20456;-72
2022/07/13 12:57:55;;;;;;;0.50;0.20;;;33.10;99.90;;;;;;5114694;28;20533;-72
2022/07/13 13:00:26;;;;;;;0.30;0.20;;;33.10;99.90;;;;;;5115548;28;20496;-72
2022/07/13 13:02:53;;;;;;;0.30;0.17;;;33.20;99.90;;;;;;5114754;28;20448;-72
2022/07/13 13:05:22;;;;;;;0.43;0.20;;;33.10;99.90;;;;;;5113807;28;20464;-72
2022/07/13 13:07:49;;;;;;;0.40;0.20;;;33.00;99.90;;;;;;5113654;28;20976;-71
2022/07/13 13:10:16;;;;;;;0.40;0.20;;;33.00;99.90;;;;;;5112670;28;20444;-71
2022/07/13 13:12:43;;;;;;;0.60;0.20;;;33.10;99.90;;;;;;5114356;28;21162;-72
2022/07/13 13:15:10;;;;;;;0.30;0.20;;;33.30;99.90;;;;;;5112248;28;20476;-71
2022/07/13 13:17:37;;;;;;;0.30;0.20;;;33.50;99.90;;;;;;5113552;28;20827;-71
2022/07/13 13:20:05;;;;;;;0.30;0.20;;;33.50;99.90;;;;;;5112965;28;20456;-72
2022/07/13 13:22:33;;;;;;;0.30;0.20;;;33.30;99.90;;;;;;5112413;28;20538;-70
2022/07/13 13:25:00;;;;;;;0.33;0.20;;;33.40;99.90;;;;;;5111951;28;20584;-70
2022/07/13 13:27:27;;;;;;;0.40;0.20;;;33.10;99.90;;;;;;5110437;28;20452;-71